Time;durP1;ratioP1;P1;durP2;ratioP2;P2;SDS_P1;SDS_P2;PMS_P1;PMS_P2;Temp;Humidity;BMP_temperature;BMP_pressure;BME280_temperature;BME280_humidity;BME280_pressure;Samples;Min_cycle;Max_cycle;Signal;HPM_P1;HPM_P2
2023/06/30 00:01:48;;;;;;;;;;;13.30;99.90;;;;;;5052470;28;19932;-93
2023/06/30 00:04:18;;;;;;;;;;;13.30;99.90;;;;;;5031541;28;20385;-94
2023/06/30 00:06:49;;;;;;;;;;;13.20;99.90;;;;;;5045618;28;19980;-93
2023/06/30 00:09:19;;;;;;;;;;;13.20;99.90;;;;;;5046601;28;19932;-92
2023/06/30 00:11:44;;;;;;;;;;;13.10;99.90;;;;;;5037538;28;19943;-94
2023/06/30 00:14:10;;;;;;;;;;;13.00;99.90;;;;;;5055619;28;19928;-94
2023/06/30 00:16:36;;;;;;;;;;;13.00;99.90;;;;;;5053217;28;19976;-93
2023/06/30 00:19:04;;;;;;;;;;;12.90;99.90;;;;;;5050202;28;20229;-93
2023/06/30 00:21:29;;;;;;;;;;;12.90;99.90;;;;;;5051507;28;19933;-93
2023/06/30 00:24:01;;;;;;;;;;;12.90;99.90;;;;;;5052564;28;19925;-92
2023/06/30 00:26:28;;;;;;;;;;;12.90;99.90;;;;;;5044512;28;20442;-93
2023/06/30 00:28:54;;;;;;;;;;;12.80;99.90;;;;;;5037568;28;19925;-94
2023/06/30 00:31:20;;;;;;;;;;;12.80;99.90;;;;;;5056434;28;20357;-94
2023/06/30 00:33:46;;;;;;;;;;;12.80;99.90;;;;;;5052444;28;20383;-93
2023/06/30 00:36:11;;;;;;;;;;;12.80;99.90;;;;;;5016613;28;20013;-93
2023/06/30 00:38:37;;;;;;;;;;;12.80;99.90;;;;;;5050974;28;20000;-93
2023/06/30 00:41:02;;;;;;;;;;;12.90;99.90;;;;;;5036639;28;19929;-92
2023/06/30 00:43:28;;;;;;;;;;;12.80;99.90;;;;;;5055844;28;19932;-94
2023/06/30 00:45:54;;;;;;;;;;;12.80;99.90;;;;;;5054149;28;19925;-92
2023/06/30 00:48:19;;;;;;;;;;;11.60;99.90;;;;;;5051476;28;20068;-93
2023/06/30 00:50:45;;;;;;;;;;;12.80;99.90;;;;;;5048948;28;19933;-93
2023/06/30 00:53:12;;;;;;;;;;;12.70;99.90;;;;;;5045972;28;20372;-94
2023/06/30 00:55:37;;;;;;;;;;;12.70;99.90;;;;;;5054135;28;19925;-91
2023/06/30 00:58:03;;;;;;;;;;;12.60;99.90;;;;;;5048163;28;19932;-92
2023/06/30 01:00:29;;;;;;;;;;;12.60;99.90;;;;;;5051366;28;19925;-92
2023/06/30 01:03:11;;;;;;;;;;;12.50;99.90;;;;;;5050230;28;19925;-89
2023/06/30 01:05:37;;;;;;;;;;;12.50;99.90;;;;;;5053372;28;19925;-92
2023/06/30 01:08:15;;;;;;;;;;;12.50;99.90;;;;;;5047906;28;19928;-92
2023/06/30 01:10:42;;;;;;;;;;;12.50;99.90;;;;;;5029489;28;20423;-88
2023/06/30 01:13:08;;;;;;;;;;;12.50;99.90;;;;;;5048857;28;19967;-91
2023/06/30 01:15:35;;;;;;;;;;;12.50;99.90;;;;;;5052516;28;20015;-94
2023/06/30 01:18:01;;;;;;;;;;;12.50;99.90;;;;;;5050055;28;20384;-93
2023/06/30 01:20:32;;;;;;;;;;;12.50;99.90;;;;;;5053440;28;19990;-93
2023/06/30 01:23:04;;;;;;;;;;;12.50;99.90;;;;;;5044280;28;19925;-93
2023/06/30 01:25:30;;;;;;;;;;;12.50;99.90;;;;;;5050716;28;19929;-94
2023/06/30 01:27:56;;;;;;;;;;;12.50;99.90;;;;;;5028704;28;19931;-92
2023/06/30 01:30:23;;;;;;;;;;;12.40;99.90;;;;;;5052307;28;19932;-92
2023/06/30 01:32:54;;;;;;;;;;;12.40;99.90;;;;;;5051033;28;20022;-94
2023/06/30 01:35:20;;;;;;;;;;;12.40;99.90;;;;;;5048321;28;19929;-93
2023/06/30 01:37:46;;;;;;;;;;;12.40;99.90;;;;;;5048773;28;19957;-94
2023/06/30 01:40:12;;;;;;;;;;;12.40;99.90;;;;;;5054160;28;20059;-92
2023/06/30 01:42:37;;;;;;;;;;;12.40;99.90;;;;;;5049779;28;20365;-93
2023/06/30 01:45:04;;;;;;;;;;;12.40;99.90;;;;;;5033101;28;20391;-92
2023/06/30 01:47:29;;;;;;;;;;;12.40;99.90;;;;;;5044958;28;19931;-93
2023/06/30 01:49:55;;;;;;;;;;;12.30;99.90;;;;;;5042838;28;20288;-91
2023/06/30 01:52:21;;;;;;;;;;;12.30;99.90;;;;;;5030891;28;19940;-91
2023/06/30 01:54:46;;;;;;;;;;;12.30;99.90;;;;;;5053458;28;19928;-93
2023/06/30 01:57:12;;;;;;;;;;;12.30;99.90;;;;;;5051712;28;19924;-92
2023/06/30 01:59:38;;;;;;;;;;;12.20;99.90;;;;;;5047350;28;19929;-92
2023/06/30 02:02:09;;;;;;;;;;;12.20;99.90;;;;;;5053932;28;19932;-92
2023/06/30 02:04:35;;;;;;;;;;;12.20;99.90;;;;;;5051475;28;19925;-94
2023/06/30 02:07:00;;;;;;;;;;;12.10;99.90;;;;;;5052897;28;19924;-92
2023/06/30 02:09:26;;;;;;;;;;;12.00;99.90;;;;;;5033575;28;20007;-93
2023/06/30 02:11:51;;;;;;;;;;;11.90;99.90;;;;;;5046442;28;19936;-92
2023/06/30 02:14:17;;;;;;;;;;;11.90;99.90;;;;;;5044537;28;20289;-93
2023/06/30 02:16:42;;;;;;;;;;;11.80;99.90;;;;;;5048814;28;20016;-92
2023/06/30 02:19:09;;;;;;;;;;;11.80;99.90;;;;;;5046517;28;19925;-92
2023/06/30 02:21:35;;;;;;;;;;;11.70;99.90;;;;;;5032132;28;19925;-92
2023/06/30 02:24:00;;;;;;;;;;;11.80;99.90;;;;;;5035812;28;19932;-93
2023/06/30 02:26:26;;;;;;;;;;;11.70;99.90;;;;;;5050348;28;19931;-92
2023/06/30 02:28:51;;;;;;;;;;;11.70;99.90;;;;;;5053359;28;19925;-92
2023/06/30 02:31:17;;;;;;;;;;;11.70;99.90;;;;;;5053350;28;20420;-92
2023/06/30 02:33:43;;;;;;;;;;;11.70;99.90;;;;;;5043770;28;19925;-93
2023/06/30 02:36:11;;;;;;;;;;;11.70;99.90;;;;;;5045816;28;19986;-93
2023/06/30 02:38:37;;;;;;;;;;;11.70;99.90;;;;;;5048853;28;19924;-94
2023/06/30 02:41:02;;;;;;;;;;;11.70;99.90;;;;;;5031266;28;20012;-93
2023/06/30 02:43:28;;;;;;;;;;;11.70;99.90;;;;;;5053815;28;20278;-93
2023/06/30 02:45:54;;;;;;;;;;;11.70;99.90;;;;;;5049956;28;19925;-92
2023/06/30 02:48:19;;;;;;;;;;;11.70;99.90;;;;;;5048161;28;19935;-92
2023/06/30 02:50:45;;;;;;;;;;;11.70;99.90;;;;;;5033434;28;19939;-92
2023/06/30 02:53:10;;;;;;;;;;;11.70;99.90;;;;;;5052077;28;20363;-92
2023/06/30 02:55:36;;;;;;;;;;;11.70;99.90;;;;;;5049518;28;20332;-91
2023/06/30 02:58:02;;;;;;;;;;;11.60;99.90;;;;;;5048641;28;20031;-92
2023/06/30 03:00:27;;;;;;;;;;;11.60;99.90;;;;;;5029570;28;19925;-92
2023/06/30 03:02:53;;;;;;;;;;;11.50;99.90;;;;;;5037619;28;19925;-92
2023/06/30 03:05:19;;;;;;;;;;;11.50;99.90;;;;;;5051724;28;19932;-92
2023/06/30 03:07:45;;;;;;;;;;;9.90;99.90;;;;;;5049334;28;19925;-91
2023/06/30 03:10:16;;;;;;;;;;;11.50;99.90;;;;;;5052801;28;19935;-92
2023/06/30 03:12:42;;;;;;;;;;;11.40;99.90;;;;;;5031309;28;19926;-93
2023/06/30 03:15:07;;;;;;;;;;;11.40;99.90;;;;;;5049939;28;20290;-92
2023/06/30 03:17:33;;;;;;;;;;;11.40;99.90;;;;;;5052470;28;20043;-93
2023/06/30 03:19:59;;;;;;;;;;;11.30;99.90;;;;;;5050262;28;19925;-90
2023/06/30 03:22:24;;;;;;;;;;;11.30;99.90;;;;;;5064825;28;19925;-90
2023/06/30 03:24:50;;;;;;;;;;;11.30;99.90;;;;;;5054448;28;19929;-88
2023/06/30 03:27:16;;;;;;;;;;;11.30;99.90;;;;;;5060084;28;19983;-91
2023/06/30 03:29:41;;;;;;;;;;;11.20;99.90;;;;;;5053040;28;19947;-93
2023/06/30 03:32:07;;;;;;;;;;;11.20;99.90;;;;;;5034765;28;19960;-91
2023/06/30 03:34:32;;;;;;;;;;;11.20;99.90;;;;;;5073588;28;19932;-90
2023/06/30 03:36:58;;;;;;;;;;;11.20;99.90;;;;;;5065572;28;19975;-92
2023/06/30 03:39:24;;;;;;;;;;;11.20;99.90;;;;;;5034555;28;19991;-92
2023/06/30 03:41:49;;;;;;;;;;;11.20;99.90;;;;;;5053612;28;19929;-90
2023/06/30 03:44:15;;;;;;;;;;;11.20;99.90;;;;;;5056119;28;19932;-90
2023/06/30 03:46:40;;;;;;;;;;;11.20;99.90;;;;;;5054689;28;19925;-90
2023/06/30 03:49:06;;;;;;;;;;;11.20;99.90;;;;;;5053440;28;19929;-91
2023/06/30 03:51:32;;;;;;;;;;;11.20;99.90;;;;;;5051183;28;20023;-91
2023/06/30 03:53:57;;;;;;;;;;;11.20;99.90;;;;;;5053807;28;19932;-91
2023/06/30 03:56:23;;;;;;;;;;;11.20;99.90;;;;;;5047923;28;19966;-91
2023/06/30 03:58:48;;;;;;;;;;;11.20;99.90;;;;;;5055385;28;19925;-92
2023/06/30 04:01:14;;;;;;;;;;;11.20;99.90;;;;;;5053783;28;19932;-92
2023/06/30 04:03:40;;;;;;;;;;;11.20;99.90;;;;;;5052422;28;19936;-92
2023/06/30 04:06:05;;;;;;;;;;;11.20;99.90;;;;;;5054196;28;20359;-92
2023/06/30 04:08:31;;;;;;;;;;;11.60;99.90;;;;;;5055632;28;20361;-91
2023/06/30 04:10:57;;;;;;;;;;;11.40;99.90;;;;;;5032080;28;19932;-93
2023/06/30 04:13:22;;;;;;;;;;;11.60;99.90;;;;;;5060902;28;19925;-93
2023/06/30 04:15:48;;;;;;;;;;;11.60;99.90;;;;;;5053686;28;19925;-93
2023/06/30 04:18:13;;;;;;;;;;;11.70;99.90;;;;;;5046870;28;19988;-93
2023/06/30 04:20:39;;;;;;;;;;;11.70;99.90;;;;;;5055464;28;20184;-93
2023/06/30 04:23:05;;;;;;;;;;;11.80;99.90;;;;;;5046890;28;20333;-94
2023/06/30 04:25:30;;;;;;;;;;;11.80;99.90;;;;;;5054327;28;19925;-92
2023/06/30 04:27:56;;;;;;;;;;;11.90;99.90;;;;;;5046560;28;19924;-92
2023/06/30 04:30:21;;;;;;;;;;;11.90;99.90;;;;;;5046237;28;20300;-90
2023/06/30 04:32:47;;;;;;;;;;;12.00;99.90;;;;;;5054255;28;20010;-93
2023/06/30 04:35:14;;;;;;;;;;;12.10;99.90;;;;;;5042336;28;19925;-93
2023/06/30 04:37:40;;;;;;;;;;;12.10;99.90;;;;;;5045502;28;19936;-93
2023/06/30 04:40:08;;;;;;;;;;;12.20;99.90;;;;;;5033623;28;20380;-93
2023/06/30 04:42:33;;;;;;;;;;;12.20;99.90;;;;;;5054938;28;19937;-93
2023/06/30 04:44:59;;;;;;;;;;;12.20;99.90;;;;;;5053096;28;20412;-92
2023/06/30 04:47:28;;;;;;;;;;;12.30;99.90;;;;;;5050956;28;19925;-94
2023/06/30 04:49:53;;;;;;;;;;;12.30;99.90;;;;;;5037072;28;19925;-92
2023/06/30 04:52:19;;;;;;;;;;;12.30;99.90;;;;;;5042598;28;20331;-92
2023/06/30 04:54:45;;;;;;;;;;;12.40;99.90;;;;;;5053979;28;19944;-93
2023/06/30 04:57:11;;;;;;;;;;;12.40;99.90;;;;;;5053246;28;20071;-93
2023/06/30 04:59:37;;;;;;;;;;;12.40;99.90;;;;;;5047123;28;19925;-92
2023/06/30 05:02:03;;;;;;;;;;;12.50;99.90;;;;;;5055259;28;19932;-93
2023/06/30 05:04:28;;;;;;;;;;;12.50;99.90;;;;;;5055586;28;19925;-92
2023/06/30 05:06:54;;;;;;;;;;;12.60;99.90;;;;;;5054859;28;20356;-92
2023/06/30 05:09:22;;;;;;;;;;;12.70;99.90;;;;;;5054210;28;19929;-92
2023/06/30 05:11:47;;;;;;;;;;;12.70;99.90;;;;;;5053779;28;19998;-92
2023/06/30 05:14:13;;;;;;;;;;;12.70;99.90;;;;;;5050957;28;20401;-93
2023/06/30 05:16:38;;;;;;;;;;;12.70;99.90;;;;;;5038816;28;19978;-93
2023/06/30 05:19:05;;;;;;;;;;;12.70;99.90;;;;;;5037675;28;20329;-92
2023/06/30 05:21:31;;;;;;;;;;;12.80;99.90;;;;;;5041402;28;19925;-92
2023/06/30 05:23:56;;;;;;;;;;;12.80;99.90;;;;;;5049143;28;20499;-93
2023/06/30 05:26:22;;;;;;;;;;;12.90;99.90;;;;;;5051704;28;20011;-92
2023/06/30 05:28:48;;;;;;;;;;;13.00;99.90;;;;;;5049913;28;19968;-91
2023/06/30 05:31:13;;;;;;;;;;;13.10;99.90;;;;;;5050447;28;19925;-93
2023/06/30 05:33:39;;;;;;;;;;;13.20;99.90;;;;;;5047607;28;19929;-91
2023/06/30 05:36:04;;;;;;;;;;;13.20;99.90;;;;;;5046495;28;20312;-92
2023/06/30 05:38:30;;;;;;;;;;;13.30;99.90;;;;;;5050985;28;20020;-93
2023/06/30 05:40:56;;;;;;;;;;;13.50;99.90;;;;;;5051172;28;19936;-93
2023/06/30 05:43:22;;;;;;;;;;;13.70;99.90;;;;;;5037506;28;19925;-93
2023/06/30 05:45:49;;;;;;;;;;;13.90;99.90;;;;;;5018646;28;19925;-94
2023/06/30 05:48:15;;;;;;;;;;;14.10;99.90;;;;;;5051248;28;19931;-95
2023/06/30 05:50:41;;;;;;;;;;;14.20;99.90;;;;;;5044341;28;20019;-93
2023/06/30 05:53:07;;;;;;;;;;;14.30;99.90;;;;;;5046782;28;19925;-91
2023/06/30 05:55:32;;;;;;;;;;;14.30;99.90;;;;;;5029932;28;20315;-88
2023/06/30 05:57:58;;;;;;;;;;;14.40;99.90;;;;;;5039756;28;19973;-88
2023/06/30 06:00:24;;;;;;;;;;;14.50;99.90;;;;;;5043301;28;19932;-88
2023/06/30 06:02:50;;;;;;;;;;;14.60;99.90;;;;;;5041334;28;20021;-91
2023/06/30 06:05:16;;;;;;;;;;;14.80;99.90;;;;;;5046860;28;19999;-92
2023/06/30 06:07:43;;;;;;;;;;;14.80;99.90;;;;;;5043583;28;20208;-92
2023/06/30 06:10:09;;;;;;;;;;;14.80;99.90;;;;;;5049071;28;20376;-93
2023/06/30 06:12:35;;;;;;;;;;;14.80;99.90;;;;;;5049217;28;19928;-90
2023/06/30 06:15:00;;;;;;;;;;;14.70;99.90;;;;;;5034354;28;20382;-88
2023/06/30 06:17:26;;;;;;;;;;;14.80;99.90;;;;;;5050948;28;20027;-86
2023/06/30 06:19:52;;;;;;;;;;;14.80;99.90;;;;;;5052008;28;20325;-89
2023/06/30 06:22:18;;;;;;;;;;;14.90;99.90;;;;;;5050926;28;19975;-91
2023/06/30 06:24:43;;;;;;;;;;;14.90;99.90;;;;;;5048932;28;19925;-91
2023/06/30 06:27:09;;;;;;;;;;;15.00;99.90;;;;;;5046150;28;19931;-90
2023/06/30 06:29:34;;;;;;;;;;;15.10;99.90;;;;;;5053945;28;19978;-89
2023/06/30 06:32:00;;;;;;;;;;;15.20;99.90;;;;;;5044023;28;19980;-89
2023/06/30 06:34:26;;;;;;;;;;;15.20;99.90;;;;;;5043270;28;19945;-91
2023/06/30 06:36:51;;;;;;;;;;;15.30;99.90;;;;;;5049297;28;19928;-90
2023/06/30 06:39:18;;;;;;;;;;;15.40;99.90;;;;;;5048244;28;19925;-93
2023/06/30 06:41:44;;;;;;;;;;;15.50;99.90;;;;;;5039083;28;19987;-88
2023/06/30 06:44:10;;;;;;;;;;;15.60;99.90;;;;;;5048250;28;19929;-88
2023/06/30 06:46:36;;;;;;;;;;;15.70;99.90;;;;;;5047259;28;19932;-88
2023/06/30 06:49:01;;;;;;;;;;;15.80;99.90;;;;;;5048909;28;20003;-88
2023/06/30 06:51:27;;;;;;;;;;;15.90;99.90;;;;;;5049625;28;19931;-88
2023/06/30 06:53:53;;;;;;;;;;;15.90;99.90;;;;;;5046818;28;19925;-86
2023/06/30 06:56:19;;;;;;;;;;;16.00;99.90;;;;;;5035478;28;19940;-88
2023/06/30 06:58:45;;;;;;;;;;;16.10;99.90;;;;;;5049525;28;20304;-89
2023/06/30 07:01:11;;;;;;;;;;;16.20;99.90;;;;;;5049831;28;19995;-89
2023/06/30 07:03:37;;;;;;;;;;;16.40;99.90;;;;;;5041105;28;19924;-90
2023/06/30 07:06:03;;;;;;;;;;;16.40;99.90;;;;;;5046340;28;19933;-86
2023/06/30 07:08:28;;;;;;;;;;;16.50;99.90;;;;;;5048596;28;19928;-89
2023/06/30 07:10:56;;;;;;;;;;;16.60;99.90;;;;;;5045828;28;20019;-88
2023/06/30 07:13:21;;;;;;;;;;;16.60;99.90;;;;;;5039941;28;19925;-90
2023/06/30 07:15:53;;;;;;;;;;;16.70;99.90;;;;;;5048358;28;19975;-91
2023/06/30 07:18:20;;;;;;;;;;;16.70;99.90;;;;;;5051621;28;19968;-87
2023/06/30 07:20:50;;;;;;;;;;;16.80;99.90;;;;;;5051778;28;19924;-86
2023/06/30 07:23:16;;;;;;;;;;;16.90;99.90;;;;;;5043398;28;19924;-88
2023/06/30 07:25:42;;;;;;;;;;;16.90;99.90;;;;;;5040610;28;19935;-87
2023/06/30 07:28:08;;;;;;;;;;;16.90;99.90;;;;;;5048834;28;20016;-87
2023/06/30 07:30:34;;;;;;;;;;;16.90;99.90;;;;;;5048040;28;20370;-86
2023/06/30 07:32:59;;;;;;;;;;;17.00;99.90;;;;;;5039232;28;19933;-87
2023/06/30 07:35:25;;;;;;;;;;;17.10;99.90;;;;;;5047046;28;20289;-88
2023/06/30 07:37:50;;;;;;;;;;;17.10;99.90;;;;;;5045345;28;19933;-88
2023/06/30 07:40:16;;;;;;;;;;;17.10;99.90;;;;;;5049021;28;19939;-89
2023/06/30 07:42:42;;;;;;;;;;;17.10;99.90;;;;;;5033028;28;19925;-88
2023/06/30 07:45:09;;;;;;;;;;;17.10;99.90;;;;;;5050449;28;19925;-90
2023/06/30 07:47:35;;;;;;;;;;;17.10;99.90;;;;;;5050977;28;19925;-90
2023/06/30 07:50:01;;;;;;;;;;;17.10;99.90;;;;;;5046752;28;19941;-88
2023/06/30 07:52:27;;;;;;;;;;;17.10;99.90;;;;;;5039253;28;19925;-90
2023/06/30 07:54:55;;;;;;;;;;;17.20;99.90;;;;;;5050394;28;19925;-87
2023/06/30 07:57:30;;;;;;;;;;;17.20;99.90;;;;;;5028576;28;19925;-89
2023/06/30 07:59:55;;;;;;;;;;;17.30;99.90;;;;;;5036235;28;20017;-89
2023/06/30 08:02:21;;;;;;;;;;;17.40;99.90;;;;;;5030011;28;20349;-88
2023/06/30 08:04:46;;;;;;;;;;;17.50;99.90;;;;;;5047436;28;19932;-87
2023/06/30 08:07:12;;;;;;;;;;;17.60;99.90;;;;;;5044767;28;19931;-87
2023/06/30 08:09:38;;;;;;;;;;;17.60;99.90;;;;;;5048464;28;19924;-88
2023/06/30 08:12:03;;;;;;;;;;;17.50;99.90;;;;;;5040522;28;19925;-89
2023/06/30 08:14:29;;;;;;;;;;;17.50;99.90;;;;;;5048755;28;19987;-88
2023/06/30 08:16:55;;;;;;;;;;;17.70;99.90;;;;;;5032640;28;19999;-88
2023/06/30 08:19:21;;;;;;;;;;;17.70;99.90;;;;;;5042936;28;20020;-88
2023/06/30 08:21:47;;;;;;;;;;;17.70;99.90;;;;;;5046843;28;19929;-88
2023/06/30 08:24:12;;;;;;;;;;;17.70;99.90;;;;;;5040419;28;20285;-88
2023/06/30 08:26:38;;;;;;;;;;;17.80;99.90;;;;;;5044989;28;19925;-86
2023/06/30 08:29:03;;;;;;;;;;;17.80;99.90;;;;;;5048614;28;20338;-89
2023/06/30 08:31:30;;;;;;;;;;;17.70;99.90;;;;;;5036372;28;19959;-88
2023/06/30 08:33:56;;;;;;;;;;;17.60;99.90;;;;;;5045937;28;19925;-87
2023/06/30 08:36:22;;;;;;;;;;;17.40;99.90;;;;;;5052782;28;20285;-88
2023/06/30 08:38:48;;;;;;;;;;;17.40;99.90;;;;;;5049668;28;19944;-88
2023/06/30 08:41:14;;;;;;;;;;;17.50;99.90;;;;;;5047064;28;19932;-88
2023/06/30 08:43:41;;;;;;;;;;;17.60;99.90;;;;;;5042615;28;20312;-87
2023/06/30 08:46:07;;;;;;;;;;;17.80;99.90;;;;;;5050282;28;19925;-88
2023/06/30 08:48:33;;;;;;;;;;;17.90;99.90;;;;;;5046602;28;20226;-88
2023/06/30 08:50:58;;;;;;;;;;;18.10;99.90;;;;;;5049756;28;20333;-87
2023/06/30 08:53:26;;;;;;;;;;;18.20;99.90;;;;;;5035623;28;19944;-87
2023/06/30 08:55:53;;;;;;;;;;;18.30;99.90;;;;;;5044584;28;19924;-87
2023/06/30 08:58:19;;;;;;;;;;;18.40;99.90;;;;;;5039836;28;19925;-87
2023/06/30 09:00:44;;;;;;;;;;;18.50;99.90;;;;;;5052728;28;20392;-87
2023/06/30 09:03:10;;;;;;;;;;;18.60;99.90;;;;;;5046782;28;20000;-87
2023/06/30 09:05:38;;;;;;;;;;;18.60;99.90;;;;;;5048835;28;19925;-86
2023/06/30 09:08:10;;;;;;;;;;;18.60;99.90;;;;;;5045966;28;19926;-88
2023/06/30 09:10:37;;;;;;;;;;;18.50;99.90;;;;;;5051402;28;19932;-86
2023/06/30 09:13:05;;;;;;;;;;;18.40;99.90;;;;;;5045665;28;19924;-88
2023/06/30 09:15:31;;;;;;;;;;;18.50;99.90;;;;;;5031650;28;20015;-87
2023/06/30 09:17:57;;;;;;;;;;;18.70;99.90;;;;;;5050729;28;20019;-88
2023/06/30 09:20:23;;;;;;;;;;;18.90;99.90;;;;;;5047216;28;19944;-88
2023/06/30 09:22:48;;;;;;;;;;;19.10;99.90;;;;;;5043664;28;19932;-86
2023/06/30 09:25:26;;;;;;;;;;;19.00;99.90;;;;;;5051278;28;19936;-88
2023/06/30 09:27:52;;;;;;;;;;;18.70;99.90;;;;;;5038519;28;20373;-88
2023/06/30 09:30:18;;;;;;;;;;;18.30;99.90;;;;;;5049078;28;19955;-88
2023/06/30 09:32:43;;;;;;;;;;;18.10;99.90;;;;;;5050744;28;19933;-87
2023/06/30 09:35:12;;;;;;;;;;;18.20;99.90;;;;;;5049369;28;19932;-89
2023/06/30 09:37:42;;;;;;;;;;;18.50;99.90;;;;;;5029993;28;19936;-90
2023/06/30 09:40:28;;;;;;;;;;;18.80;99.90;;;;;;5044451;28;20284;-86
2023/06/30 09:42:53;;;;;;;;;;;19.10;99.90;;;;;;5049630;28;19951;-88
2023/06/30 09:45:19;;;;;;;;;;;19.40;99.90;;;;;;5035919;28;20011;-85
2023/06/30 09:47:52;;;;;;;;;;;19.50;99.90;;;;;;5048307;28;19929;-85
2023/06/30 09:50:29;;;;;;;;;;;19.50;99.90;;;;;;5035498;28;19924;-87
2023/06/30 09:52:55;;;;;;;;;;;19.30;99.90;;;;;;5024865;28;19941;-88
2023/06/30 09:55:20;;;;;;;;;;;19.10;99.90;;;;;;5024337;28;19929;-88
2023/06/30 09:57:46;;;;;;;;;;;19.00;99.90;;;;;;5044190;28;19928;-87
2023/06/30 10:00:13;;;;;;;;;;;19.10;99.90;;;;;;5051811;28;19931;-89
2023/06/30 10:02:40;;;;;;;;;;;19.40;99.90;;;;;;5041338;28;19929;-88
2023/06/30 10:05:06;;;;;;;;;;;19.60;99.90;;;;;;5047916;28;19925;-88
2023/06/30 10:07:32;;;;;;;;;;;19.70;99.90;;;;;;5048544;28;20027;-88
2023/06/30 10:09:58;;;;;;;;;;;19.60;99.90;;;;;;5047849;28;20404;-88
2023/06/30 10:12:24;;;;;;;;;;;19.50;99.90;;;;;;5015245;28;20292;-88
2023/06/30 10:14:51;;;;;;;;;;;19.40;99.90;;;;;;5047935;28;19982;-86
2023/06/30 10:17:17;;;;;;;;;;;19.20;99.90;;;;;;5049757;28;19931;-87
2023/06/30 10:19:43;;;;;;;;;;;19.30;99.90;;;;;;5052578;28;19928;-88
2023/06/30 10:22:08;;;;;;;;;;;19.40;99.90;;;;;;5046462;28;19925;-87
2023/06/30 10:24:37;;;;;;;;;;;19.40;99.90;;;;;;5014708;28;19932;-87
2023/06/30 10:27:09;;;;;;;;;;;19.60;99.90;;;;;;5048790;28;19932;-87
2023/06/30 10:29:35;;;;;;;;;;;19.80;99.90;;;;;;5041205;28;19925;-86
2023/06/30 10:32:01;;;;;;;;;;;19.80;99.90;;;;;;5042153;28;20564;-87
2023/06/30 10:34:28;;;;;;;;;;;19.80;99.90;;;;;;5038503;28;20039;-87
2023/06/30 10:36:53;;;;;;;;;;;19.90;99.90;;;;;;5048450;28;19929;-87
2023/06/30 10:39:19;;;;;;;;;;;20.00;99.90;;;;;;5037770;28;19933;-86
2023/06/30 10:41:48;;;;;;;;;;;20.00;99.90;;;;;;5037256;28;19989;-89
2023/06/30 10:44:14;;;;;;;;;;;19.90;99.90;;;;;;5038629;28;19928;-89
2023/06/30 10:46:46;;;;;;;;;;;19.60;99.90;;;;;;5044527;28;19952;-86
2023/06/30 10:49:19;;;;;;;;;;;19.60;99.90;;;;;;5021277;28;19925;-86
2023/06/30 10:51:49;;;;;;;;;;;19.80;99.90;;;;;;5034999;28;20011;-89
2023/06/30 10:54:28;;;;;;;;;;;20.10;99.90;;;;;;5043475;28;19968;-87
2023/06/30 10:57:09;;;;;;;;;;;20.40;99.90;;;;;;5025743;28;19925;-89
2023/06/30 10:59:45;;;;;;;;;;;20.70;99.90;;;;;;5043135;28;19925;-86
2023/06/30 11:02:16;;;;;;;;;;;21.00;99.90;;;;;;5048172;28;19935;-87
2023/06/30 11:04:43;;;;;;;;;;;21.30;99.90;;;;;;5043455;28;20357;-87
2023/06/30 11:07:10;;;;;;;;;;;21.40;99.90;;;;;;5043884;28;20445;-90
2023/06/30 11:09:48;;;;;;;;;;;21.50;99.90;;;;;;5042017;28;19925;-88
2023/06/30 11:12:24;;;;;;;;;;;21.50;97.80;;;;;;5047606;28;19928;-86
2023/06/30 11:14:59;;;;;;;;;;;21.50;96.40;;;;;;5042445;28;19951;-88
2023/06/30 11:17:26;;;;;;;;;;;21.60;99.10;;;;;;5032223;28;20009;-86
2023/06/30 11:20:11;;;;;;;;;;;21.70;98.50;;;;;;5045442;28;19924;-87
2023/06/30 11:22:37;;;;;;;;;;;21.90;96.10;;;;;;5046808;28;19925;-88
2023/06/30 11:25:03;;;;;;;;;;;21.80;98.10;;;;;;5043937;28;19931;-89
2023/06/30 11:27:32;;;;;;;;;;;21.50;96.10;;;;;;5049585;28;19925;-93
2023/06/30 11:30:00;;;;;;;;;;;21.30;98.20;;;;;;5029867;28;19972;-90
2023/06/30 11:32:27;;;;;;;;;;;21.00;97.10;;;;;;5046317;28;19994;-90
2023/06/30 11:34:54;;;;;;;;;;;21.00;98.20;;;;;;5041778;28;19929;-91
2023/06/30 11:37:19;;;;;;;;;;;21.00;97.10;;;;;;5032149;28;19940;-90
2023/06/30 11:39:55;;;;;;;;;;;21.30;98.80;;;;;;5045563;28;20012;-90
2023/06/30 11:42:21;;;;;;;;;;;21.40;96.90;;;;;;5023886;28;19944;-92
2023/06/30 11:44:50;;;;;;;;;;;21.50;96.50;;;;;;5043143;28;19933;-88
2023/06/30 11:47:16;;;;;;;;;;;21.60;95.40;;;;;;5050307;28;19925;-95
2023/06/30 11:49:42;;;;;;;;;;;21.40;95.10;;;;;;5042436;28;20016;-90
2023/06/30 11:52:08;;;;;;;;;;;21.40;96.40;;;;;;5045685;28;20004;-92
2023/06/30 11:54:35;;;;;;;;;;;21.10;97.10;;;;;;5046119;28;19928;-91
2023/06/30 11:57:01;;;;;;;;;;;20.90;97.00;;;;;;5036369;28;19951;-91
2023/06/30 11:59:26;;;;;;;;;;;20.90;97.10;;;;;;5047109;28;19925;-89
2023/06/30 12:01:55;;;;;;;;;;;20.80;97.60;;;;;;5042492;28;19979;-90
2023/06/30 12:04:21;;;;;;;;;;;20.80;95.80;;;;;;5051450;28;19992;-93
2023/06/30 12:06:46;;;;;;;;;;;20.90;97.20;;;;;;5062970;28;20283;-89
2023/06/30 12:09:12;;;;;;;;;;;21.20;96.80;;;;;;5048132;28;19925;-90
2023/06/30 12:11:41;;;;;;;;;;;21.50;95.90;;;;;;5042206;28;20329;-92
2023/06/30 12:14:07;;;;;;;;;;;21.70;94.80;;;;;;5057994;28;20300;-91
2023/06/30 12:16:48;;;;;;;;;;;21.60;93.00;;;;;;5053275;28;19932;-89
2023/06/30 12:19:13;;;;;;;;;;;21.30;94.30;;;;;;5050079;28;20296;-88
2023/06/30 12:21:51;;;;;;;;;;;21.40;94.30;;;;;;5055782;28;19929;-86
2023/06/30 12:24:18;;;;;;;;;;;21.10;94.00;;;;;;5051244;28;19925;-90
2023/06/30 12:26:44;;;;;;;;;;;21.00;95.60;;;;;;5055541;28;19964;-90
2023/06/30 12:29:09;;;;;;;;;;;20.90;95.20;;;;;;5058353;28;19935;-88
2023/06/30 12:31:35;;;;;;;;;;;20.90;95.30;;;;;;5055154;28;19965;-89
2023/06/30 12:34:01;;;;;;;;;;;21.20;95.40;;;;;;5065718;28;19925;-86
2023/06/30 12:36:29;;;;;;;;;;;21.40;94.30;;;;;;5068598;28;19947;-87
2023/06/30 12:38:55;;;;;;;;;;;21.70;93.60;;;;;;5067705;28;19929;-87
2023/06/30 12:41:21;;;;;;;;;;;21.80;92.70;;;;;;5073181;28;19939;-87
2023/06/30 12:43:48;;;;;;;;;;;21.80;93.10;;;;;;5074159;28;19913;-89
2023/06/30 12:46:13;;;;;;;;;;;21.50;91.80;;;;;;5075017;28;19912;-88
2023/06/30 12:48:39;;;;;;;;;;;21.60;93.10;;;;;;5072928;28;19936;-85
2023/06/30 12:51:05;;;;;;;;;;;21.70;94.80;;;;;;5075673;28;19936;-87
2023/06/30 12:53:31;;;;;;;;;;;21.70;91.70;;;;;;5067080;28;19935;-85
2023/06/30 12:55:57;;;;;;;;;;;21.50;92.50;;;;;;5068304;28;19969;-88
2023/06/30 12:58:22;;;;;;;;;;;21.30;92.50;;;;;;5070505;28;19929;-89
2023/06/30 13:00:48;;;;;;;;;;;21.20;95.20;;;;;;5077179;28;19913;-84
2023/06/30 13:03:13;;;;;;;;;;;21.20;93.90;;;;;;5072823;28;19939;-87
2023/06/30 13:05:40;;;;;;;;;;;21.00;94.20;;;;;;5043004;28;19936;-90
2023/06/30 13:08:05;;;;;;;;;;;20.90;94.40;;;;;;5043020;28;19936;-90
2023/06/30 13:10:31;;;;;;;;;;;21.00;95.30;;;;;;5046892;28;19932;-91
2023/06/30 13:12:57;;;;;;;;;;;20.90;95.30;;;;;;5035952;28;20004;-93
2023/06/30 13:15:22;;;;;;;;;;;20.90;95.50;;;;;;5053778;28;19925;-90
2023/06/30 13:17:49;;;;;;;;;;;20.90;95.00;;;;;;5061890;28;19974;-89
2023/06/30 13:20:14;;;;;;;;;;;21.10;95.70;;;;;;5046239;28;19937;-90
2023/06/30 13:22:40;;;;;;;;;;;21.40;95.70;;;;;;5048822;28;19983;-89
2023/06/30 13:25:06;;;;;;;;;;;21.70;95.50;;;;;;5047642;28;19932;-92
2023/06/30 13:27:31;;;;;;;;;;;21.80;92.60;;;;;;5060912;28;19955;-92
2023/06/30 13:29:57;;;;;;;;;;;21.70;93.80;;;;;;5038595;28;19940;-90
2023/06/30 13:32:23;;;;;;;;;;;21.60;93.80;;;;;;5060756;28;19912;-88
2023/06/30 13:34:48;;;;;;;;;;;21.70;94.60;;;;;;5072019;28;19913;-88
2023/06/30 13:37:14;;;;;;;;;;;21.60;94.60;;;;;;5075401;28;19909;-85
2023/06/30 13:39:40;;;;;;;;;;;21.60;94.00;;;;;;5068423;28;20039;-87
2023/06/30 13:42:06;;;;;;;;;;;21.70;95.80;;;;;;5071979;28;19920;-90
2023/06/30 13:44:32;;;;;;;;;;;22.00;95.10;;;;;;5057898;28;19952;-92
2023/06/30 13:46:58;;;;;;;;;;;22.40;93.90;;;;;;5065907;28;19959;-87
2023/06/30 13:49:23;;;;;;;;;;;22.60;92.30;;;;;;5068125;28;19913;-87
2023/06/30 13:51:49;;;;;;;;;;;22.70;91.40;;;;;;5071156;28;19912;-86
2023/06/30 13:54:15;;;;;;;;;;;22.90;92.70;;;;;;5075172;28;19913;-87
2023/06/30 13:56:40;;;;;;;;;;;22.90;92.00;;;;;;5063830;28;19913;-86
2023/06/30 13:59:06;;;;;;;;;;;23.10;92.10;;;;;;5056885;28;19913;-89
2023/06/30 14:01:31;;;;;;;;;;;23.10;91.50;;;;;;5053193;28;19933;-87
2023/06/30 14:03:57;;;;;;;;;;;23.20;93.20;;;;;;5050524;28;20032;-89
2023/06/30 14:06:22;;;;;;;;;;;23.30;92.00;;;;;;5047619;28;19928;-90
2023/06/30 14:08:48;;;;;;;;;;;23.00;92.00;;;;;;5050429;28;20014;-92
2023/06/30 14:11:15;;;;;;;;;;;22.90;93.10;;;;;;5047066;28;19925;-91
2023/06/30 14:13:40;;;;;;;;;;;22.90;93.20;;;;;;5023057;28;19944;-91